Airfield :
LOGIN :

Register | Disclaimer

   EN    FR    IT 

 










Legend :    VFR   Marginal VFR   IFR   Intensive IFR   Very Intensive IFR
Visi :
Ceiling :
>= 8 km
>= 3000ft
5 to 8 km
1000 to 3000 ft
1500m to 5 km
500 to 1000 ft
800 to 1500m
200 to 500 ft
< 800m
< 200 ft
Symbols :   Thunderstorms  Fog  Heavy snow  Heavy precipitations  Wind > 20 kt
SIGMETs :     Misc.  Thunderstorms  Icing  Turbulence  Mountain Waves  Volcanic Ashes






- Airport Elevation : 2096 ft
- IATA code : AUR


LFLW - Aurillac

CURRENT METAR :
  • 212330Z AUTO VRB02KT 9999 SCT009 BKN015 BKN028 09/09 Q1020

EXPIRED METARs :
  • 212300Z AUTO VRB02KT 9999 BKN008 BKN012 BKN017 09/08 Q1020
  • 212230Z AUTO 23003KT 9999 BKN010 BKN021 OVC034 10/09 Q1020
  • 212200Z AUTO VRB02KT 9999 BKN011 OVC016 10/09 Q1020
  • 212130Z AUTO VRB02KT 9999 BKN011 BKN017 OVC033 10/09 Q1020
  • 212100Z AUTO VRB02KT 9999 BKN013/// BKN029/// OVC039/// ///TCU 10/09 Q1020

TAF TAF LFLW
Valid from the 21 at 15:00 until the 22 at 00:00 UTC


211400Z 2115/2124 27008KT 9999 SCT030
PROB40
TEMPO 2115/2118 4000 SHRA BKN013 SCT025TCU
BECMG 2118/2120 BKN012
TEMPO 2120/2124 4000 -RADZ OVC008



MET'MAP, your aeronautical weather chart ! - Copyright ORBIFLY December 2007 - Disclaimer

ORBIFLY MET'MAP TEAM :

Programming & Development : Alexandra Zaïnal
Concept & original design : Baudouin d'Aumeries
Assistance for programming : Marc-Olivier Méhu
Technical & hardware support : Manuel Goepfert

Contact : metmap@orbifly.com




SOURCES & CREDITS :

   NOAA